sensor_id;sensor_type;location;lat;lon;timestamp;temperature;humidity
53053;DHT22;38934;52.690;6.184;2023-06-26T00:00:12;22.60;99.90
53053;DHT22;38934;52.690;6.184;2023-06-26T00:02:37;22.60;99.90
53053;DHT22;38934;52.690;6.184;2023-06-26T00:05:04;22.60;99.90
53053;DHT22;38934;52.690;6.184;2023-06-26T00:07:30;22.50;99.90
53053;DHT22;38934;52.690;6.184;2023-06-26T00:09:59;22.50;99.90
53053;DHT22;38934;52.690;6.184;2023-06-26T00:12:25;22.50;99.90
53053;DHT22;38934;52.690;6.184;2023-06-26T00:14:50;22.40;99.90
53053;DHT22;38934;52.690;6.184;2023-06-26T00:17:16;22.40;99.90
53053;DHT22;38934;52.690;6.184;2023-06-26T00:19:42;22.40;99.90
53053;DHT22;38934;52.690;6.184;2023-06-26T00:22:07;22.40;99.90
53053;DHT22;38934;52.690;6.184;2023-06-26T00:24:33;22.40;99.90
53053;DHT22;38934;52.690;6.184;2023-06-26T00:26:58;22.30;99.90
53053;DHT22;38934;52.690;6.184;2023-06-26T00:29:24;22.30;99.90
53053;DHT22;38934;52.690;6.184;2023-06-26T00:31:50;22.20;99.90
53053;DHT22;38934;52.690;6.184;2023-06-26T00:34:15;22.20;99.90
53053;DHT22;38934;52.690;6.184;2023-06-26T00:36:41;22.20;99.90
53053;DHT22;38934;52.690;6.184;2023-06-26T00:39:10;22.20;99.90
53053;DHT22;38934;52.690;6.184;2023-06-26T00:41:38;22.10;99.90
53053;DHT22;38934;52.690;6.184;2023-06-26T00:44:04;22.10;99.90
53053;DHT22;38934;52.690;6.184;2023-06-26T00:46:31;22.00;99.90
53053;DHT22;38934;52.690;6.184;2023-06-26T00:48:59;22.10;99.90
53053;DHT22;38934;52.690;6.184;2023-06-26T00:51:26;21.90;99.90
53053;DHT22;38934;52.690;6.184;2023-06-26T00:53:52;21.90;99.90
53053;DHT22;38934;52.690;6.184;2023-06-26T00:56:19;21.90;99.90
53053;DHT22;38934;52.690;6.184;2023-06-26T00:58:45;21.80;99.90
53053;DHT22;38934;52.690;6.184;2023-06-26T01:01:11;21.80;99.90
53053;DHT22;38934;52.690;6.184;2023-06-26T01:03:41;21.80;99.90
53053;DHT22;38934;52.690;6.184;2023-06-26T01:06:08;21.70;99.90
53053;DHT22;38934;52.690;6.184;2023-06-26T01:08:37;21.70;99.90
53053;DHT22;38934;52.690;6.184;2023-06-26T01:11:03;21.70;99.90
53053;DHT22;38934;52.690;6.184;2023-06-26T01:13:29;21.70;99.90
53053;DHT22;38934;52.690;6.184;2023-06-26T01:15:57;21.70;99.90
53053;DHT22;38934;52.690;6.184;2023-06-26T01:18:24;21.60;99.90
53053;DHT22;38934;52.690;6.184;2023-06-26T01:20:51;21.70;99.90
53053;DHT22;38934;52.690;6.184;2023-06-26T01:28:30;21.50;99.90
53053;DHT22;38934;52.690;6.184;2023-06-26T01:30:57;21.50;99.90
53053;DHT22;38934;52.690;6.184;2023-06-26T01:33:24;21.50;99.90
53053;DHT22;38934;52.690;6.184;2023-06-26T01:35:50;21.40;99.90
53053;DHT22;38934;52.690;6.184;2023-06-26T01:38:17;21.50;99.90
53053;DHT22;38934;52.690;6.184;2023-06-26T01:40:43;21.50;99.90
53053;DHT22;38934;52.690;6.184;2023-06-26T01:43:36;21.40;99.90
53053;DHT22;38934;52.690;6.184;2023-06-26T01:46:06;21.40;99.90
53053;DHT22;38934;52.690;6.184;2023-06-26T01:48:38;21.40;99.90
53053;DHT22;38934;52.690;6.184;2023-06-26T01:51:06;21.40;99.90
53053;DHT22;38934;52.690;6.184;2023-06-26T01:53:36;21.40;99.90
53053;DHT22;38934;52.690;6.184;2023-06-26T01:56:08;21.40;99.90
53053;DHT22;38934;52.690;6.184;2023-06-26T01:58:41;21.40;99.90
53053;DHT22;38934;52.690;6.184;2023-06-26T02:01:09;21.40;99.90
53053;DHT22;38934;52.690;6.184;2023-06-26T02:03:34;21.40;99.90
53053;DHT22;38934;52.690;6.184;2023-06-26T02:06:00;21.40;99.90
53053;DHT22;38934;52.690;6.184;2023-06-26T02:08:25;21.40;99.90
53053;DHT22;38934;52.690;6.184;2023-06-26T02:10:51;21.40;99.90
53053;DHT22;38934;52.690;6.184;2023-06-26T02:13:17;21.40;99.90
53053;DHT22;38934;52.690;6.184;2023-06-26T02:15:42;21.40;99.90
53053;DHT22;38934;52.690;6.184;2023-06-26T02:18:08;21.50;99.90
53053;DHT22;38934;52.690;6.184;2023-06-26T02:20:33;21.50;99.90
53053;DHT22;38934;52.690;6.184;2023-06-26T02:22:59;21.50;99.90
53053;DHT22;38934;52.690;6.184;2023-06-26T02:25:25;21.50;99.90
53053;DHT22;38934;52.690;6.184;2023-06-26T02:27:51;21.40;99.90
53053;DHT22;38934;52.690;6.184;2023-06-26T02:30:16;21.40;99.90
53053;DHT22;38934;52.690;6.184;2023-06-26T02:32:42;21.40;99.90
53053;DHT22;38934;52.690;6.184;2023-06-26T02:35:08;21.40;99.90
53053;DHT22;38934;52.690;6.184;2023-06-26T02:37:34;21.40;99.90
53053;DHT22;38934;52.690;6.184;2023-06-26T02:39:59;21.30;99.90
53053;DHT22;38934;52.690;6.184;2023-06-26T02:42:25;21.30;99.90
53053;DHT22;38934;52.690;6.184;2023-06-26T02:44:51;21.30;99.90
53053;DHT22;38934;52.690;6.184;2023-06-26T02:47:17;21.30;99.90
53053;DHT22;38934;52.690;6.184;2023-06-26T02:49:42;21.30;99.90
53053;DHT22;38934;52.690;6.184;2023-06-26T02:52:08;21.20;99.90
53053;DHT22;38934;52.690;6.184;2023-06-26T02:54:34;21.20;99.90
53053;DHT22;38934;52.690;6.184;2023-06-26T02:57:00;21.20;99.90
53053;DHT22;38934;52.690;6.184;2023-06-26T02:59:26;21.10;99.90
53053;DHT22;38934;52.690;6.184;2023-06-26T03:01:51;21.10;99.90
53053;DHT22;38934;52.690;6.184;2023-06-26T03:04:17;21.10;99.90
53053;DHT22;38934;52.690;6.184;2023-06-26T03:06:43;21.10;99.90
53053;DHT22;38934;52.690;6.184;2023-06-26T03:09:09;21.00;99.90
53053;DHT22;38934;52.690;6.184;2023-06-26T03:11:35;21.00;99.90
53053;DHT22;38934;52.690;6.184;2023-06-26T03:14:00;21.00;99.90
53053;DHT22;38934;52.690;6.184;2023-06-26T03:16:26;21.00;99.90
53053;DHT22;38934;52.690;6.184;2023-06-26T03:18:52;21.00;99.90
53053;DHT22;38934;52.690;6.184;2023-06-26T03:21:17;21.00;99.90
53053;DHT22;38934;52.690;6.184;2023-06-26T03:23:43;21.10;99.90
53053;DHT22;38934;52.690;6.184;2023-06-26T03:26:09;21.10;99.90
53053;DHT22;38934;52.690;6.184;2023-06-26T03:28:34;21.10;99.90
53053;DHT22;38934;52.690;6.184;2023-06-26T03:31:00;21.00;99.90
53053;DHT22;38934;52.690;6.184;2023-06-26T03:33:26;21.20;99.90
53053;DHT22;38934;52.690;6.184;2023-06-26T03:35:51;21.20;99.90
53053;DHT22;38934;52.690;6.184;2023-06-26T03:38:17;21.30;99.90
53053;DHT22;38934;52.690;6.184;2023-06-26T03:40:43;21.40;99.90
53053;DHT22;38934;52.690;6.184;2023-06-26T03:43:08;21.50;99.90
53053;DHT22;38934;52.690;6.184;2023-06-26T03:45:34;21.50;99.90
53053;DHT22;38934;52.690;6.184;2023-06-26T03:47:59;21.60;99.90
53053;DHT22;38934;52.690;6.184;2023-06-26T03:50:25;21.60;99.90
53053;DHT22;38934;52.690;6.184;2023-06-26T03:52:51;21.60;99.90
53053;DHT22;38934;52.690;6.184;2023-06-26T03:55:17;21.60;99.90
53053;DHT22;38934;52.690;6.184;2023-06-26T03:57:43;21.60;99.90
53053;DHT22;38934;52.690;6.184;2023-06-26T04:00:09;21.70;99.90
53053;DHT22;38934;52.690;6.184;2023-06-26T04:02:36;21.70;99.90
53053;DHT22;38934;52.690;6.184;2023-06-26T04:05:02;21.80;99.90
53053;DHT22;38934;52.690;6.184;2023-06-26T04:07:29;21.80;99.90
53053;DHT22;38934;52.690;6.184;2023-06-26T04:09:56;21.80;99.90
53053;DHT22;38934;52.690;6.184;2023-06-26T04:12:22;21.80;99.90
53053;DHT22;38934;52.690;6.184;2023-06-26T04:14:47;21.70;99.90
53053;DHT22;38934;52.690;6.184;2023-06-26T04:17:13;21.70;99.90
53053;DHT22;38934;52.690;6.184;2023-06-26T04:19:39;21.70;99.90
53053;DHT22;38934;52.690;6.184;2023-06-26T04:22:04;21.60;99.90
53053;DHT22;38934;52.690;6.184;2023-06-26T04:24:30;21.60;99.90
53053;DHT22;38934;52.690;6.184;2023-06-26T04:26:56;21.60;99.90
53053;DHT22;38934;52.690;6.184;2023-06-26T04:29:23;21.60;99.90
53053;DHT22;38934;52.690;6.184;2023-06-26T04:31:51;21.60;99.90
53053;DHT22;38934;52.690;6.184;2023-06-26T04:34:17;21.60;99.90
53053;DHT22;38934;52.690;6.184;2023-06-26T04:36:43;21.60;99.90
53053;DHT22;38934;52.690;6.184;2023-06-26T04:39:14;21.70;99.90
53053;DHT22;38934;52.690;6.184;2023-06-26T04:41:40;21.80;99.90
53053;DHT22;38934;52.690;6.184;2023-06-26T04:44:06;21.80;99.90
53053;DHT22;38934;52.690;6.184;2023-06-26T04:46:31;21.80;99.90
53053;DHT22;38934;52.690;6.184;2023-06-26T04:48:57;21.80;99.90
53053;DHT22;38934;52.690;6.184;2023-06-26T04:51:24;21.70;99.90
53053;DHT22;38934;52.690;6.184;2023-06-26T04:53:50;21.70;99.90
53053;DHT22;38934;52.690;6.184;2023-06-26T04:56:15;21.60;99.90
53053;DHT22;38934;52.690;6.184;2023-06-26T04:58:41;21.50;99.90
53053;DHT22;38934;52.690;6.184;2023-06-26T05:01:07;21.50;99.90
53053;DHT22;38934;52.690;6.184;2023-06-26T05:03:33;21.50;99.90
53053;DHT22;38934;52.690;6.184;2023-06-26T05:05:59;21.50;99.90
53053;DHT22;38934;52.690;6.184;2023-06-26T05:08:25;21.50;99.90
53053;DHT22;38934;52.690;6.184;2023-06-26T05:10:54;21.50;99.90
53053;DHT22;38934;52.690;6.184;2023-06-26T05:13:23;21.50;99.90
53053;DHT22;38934;52.690;6.184;2023-06-26T05:15:49;21.50;99.90
53053;DHT22;38934;52.690;6.184;2023-06-26T05:18:15;21.70;99.90
53053;DHT22;38934;52.690;6.184;2023-06-26T05:20:41;21.90;99.90
53053;DHT22;38934;52.690;6.184;2023-06-26T05:23:06;22.20;99.90
53053;DHT22;38934;52.690;6.184;2023-06-26T05:25:33;22.50;99.90
53053;DHT22;38934;52.690;6.184;2023-06-26T05:28:02;22.60;99.90
53053;DHT22;38934;52.690;6.184;2023-06-26T05:30:30;22.40;99.90
53053;DHT22;38934;52.690;6.184;2023-06-26T05:32:59;22.30;99.90
53053;DHT22;38934;52.690;6.184;2023-06-26T05:35:28;22.30;99.90
53053;DHT22;38934;52.690;6.184;2023-06-26T05:37:55;22.40;99.90
53053;DHT22;38934;52.690;6.184;2023-06-26T05:40:21;22.40;99.90
53053;DHT22;38934;52.690;6.184;2023-06-26T05:42:47;22.40;99.90
53053;DHT22;38934;52.690;6.184;2023-06-26T05:45:13;22.40;99.90
53053;DHT22;38934;52.690;6.184;2023-06-26T05:47:39;22.70;99.90
53053;DHT22;38934;52.690;6.184;2023-06-26T05:50:05;23.50;99.90
53053;DHT22;38934;52.690;6.184;2023-06-26T05:52:31;24.30;99.90
53053;DHT22;38934;52.690;6.184;2023-06-26T05:54:57;24.80;99.90
53053;DHT22;38934;52.690;6.184;2023-06-26T05:57:29;25.10;99.90
53053;DHT22;38934;52.690;6.184;2023-06-26T05:59:55;25.70;99.90
53053;DHT22;38934;52.690;6.184;2023-06-26T06:02:21;26.30;99.90
53053;DHT22;38934;52.690;6.184;2023-06-26T06:04:47;26.40;99.90
53053;DHT22;38934;52.690;6.184;2023-06-26T06:07:13;26.70;99.90
53053;DHT22;38934;52.690;6.184;2023-06-26T06:09:38;27.00;99.90
53053;DHT22;38934;52.690;6.184;2023-06-26T06:12:07;27.40;99.90
53053;DHT22;38934;52.690;6.184;2023-06-26T06:14:33;28.00;99.90
53053;DHT22;38934;52.690;6.184;2023-06-26T06:17:00;28.20;99.90
53053;DHT22;38934;52.690;6.184;2023-06-26T06:19:25;27.80;99.60
53053;DHT22;38934;52.690;6.184;2023-06-26T06:21:51;26.90;99.20
53053;DHT22;38934;52.690;6.184;2023-06-26T06:24:17;26.10;99.90
53053;DHT22;38934;52.690;6.184;2023-06-26T06:26:42;25.40;99.90
53053;DHT22;38934;52.690;6.184;2023-06-26T06:29:08;25.00;99.90
53053;DHT22;38934;52.690;6.184;2023-06-26T06:31:33;25.60;99.90
53053;DHT22;38934;52.690;6.184;2023-06-26T06:33:59;26.30;99.90
53053;DHT22;38934;52.690;6.184;2023-06-26T06:36:25;27.00;99.90
53053;DHT22;38934;52.690;6.184;2023-06-26T06:38:50;27.60;99.90
53053;DHT22;38934;52.690;6.184;2023-06-26T06:41:16;28.10;99.50
53053;DHT22;38934;52.690;6.184;2023-06-26T06:43:42;28.60;97.90
53053;DHT22;38934;52.690;6.184;2023-06-26T06:46:08;29.00;96.40
53053;DHT22;38934;52.690;6.184;2023-06-26T06:48:34;29.20;94.40
53053;DHT22;38934;52.690;6.184;2023-06-26T06:51:00;29.40;92.90
53053;DHT22;38934;52.690;6.184;2023-06-26T06:53:25;29.60;92.50
53053;DHT22;38934;52.690;6.184;2023-06-26T06:55:51;29.80;91.90
53053;DHT22;38934;52.690;6.184;2023-06-26T06:58:17;29.90;90.60
53053;DHT22;38934;52.690;6.184;2023-06-26T07:00:44;29.90;90.20
53053;DHT22;38934;52.690;6.184;2023-06-26T07:03:10;30.40;89.50
53053;DHT22;38934;52.690;6.184;2023-06-26T07:05:36;30.60;86.80
53053;DHT22;38934;52.690;6.184;2023-06-26T07:08:02;30.90;85.70
53053;DHT22;38934;52.690;6.184;2023-06-26T07:10:29;31.20;83.50
53053;DHT22;38934;52.690;6.184;2023-06-26T07:12:54;31.50;82.40
53053;DHT22;38934;52.690;6.184;2023-06-26T07:15:20;31.40;80.20
53053;DHT22;38934;52.690;6.184;2023-06-26T07:17:46;31.30;78.80
53053;DHT22;38934;52.690;6.184;2023-06-26T07:20:11;31.10;78.40
53053;DHT22;38934;52.690;6.184;2023-06-26T07:22:41;30.50;78.10
53053;DHT22;38934;52.690;6.184;2023-06-26T07:25:07;30.20;78.00
53053;DHT22;38934;52.690;6.184;2023-06-26T07:27:37;30.00;78.30
53053;DHT22;38934;52.690;6.184;2023-06-26T07:30:03;30.00;78.30
53053;DHT22;38934;52.690;6.184;2023-06-26T07:32:29;30.30;78.40
53053;DHT22;38934;52.690;6.184;2023-06-26T07:34:55;30.60;78.30
53053;DHT22;38934;52.690;6.184;2023-06-26T07:37:20;30.50;77.00
53053;DHT22;38934;52.690;6.184;2023-06-26T07:39:47;30.20;77.10
53053;DHT22;38934;52.690;6.184;2023-06-26T07:42:12;30.10;77.00
53053;DHT22;38934;52.690;6.184;2023-06-26T07:44:38;30.10;76.30
53053;DHT22;38934;52.690;6.184;2023-06-26T07:47:04;30.00;76.70
53053;DHT22;38934;52.690;6.184;2023-06-26T07:49:29;29.90;75.00
53053;DHT22;38934;52.690;6.184;2023-06-26T07:51:55;29.30;76.00
53053;DHT22;38934;52.690;6.184;2023-06-26T07:54:21;28.40;77.10
53053;DHT22;38934;52.690;6.184;2023-06-26T07:56:58;27.70;78.20
53053;DHT22;38934;52.690;6.184;2023-06-26T07:59:25;27.50;80.40
53053;DHT22;38934;52.690;6.184;2023-06-26T08:01:52;28.10;80.30
53053;DHT22;38934;52.690;6.184;2023-06-26T08:04:20;28.90;80.50
53053;DHT22;38934;52.690;6.184;2023-06-26T08:06:48;29.50;79.70
53053;DHT22;38934;52.690;6.184;2023-06-26T08:09:14;29.00;78.50
53053;DHT22;38934;52.690;6.184;2023-06-26T08:11:39;28.90;79.00
53053;DHT22;38934;52.690;6.184;2023-06-26T08:14:05;28.70;79.30
53053;DHT22;38934;52.690;6.184;2023-06-26T08:16:31;28.10;79.10
53053;DHT22;38934;52.690;6.184;2023-06-26T08:18:56;27.80;80.10
53053;DHT22;38934;52.690;6.184;2023-06-26T08:21:22;28.40;81.00
53053;DHT22;38934;52.690;6.184;2023-06-26T08:23:47;28.20;80.40
53053;DHT22;38934;52.690;6.184;2023-06-26T08:26:13;27.50;80.70
53053;DHT22;38934;52.690;6.184;2023-06-26T08:28:39;27.30;81.60
53053;DHT22;38934;52.690;6.184;2023-06-26T08:31:05;27.00;81.60
53053;DHT22;38934;52.690;6.184;2023-06-26T08:33:30;27.10;82.40
53053;DHT22;38934;52.690;6.184;2023-06-26T08:35:56;27.80;82.60
53053;DHT22;38934;52.690;6.184;2023-06-26T08:38:21;28.40;82.10
53053;DHT22;38934;52.690;6.184;2023-06-26T08:40:48;28.40;80.90
53053;DHT22;38934;52.690;6.184;2023-06-26T08:43:13;27.80;80.70
53053;DHT22;38934;52.690;6.184;2023-06-26T08:45:39;27.00;80.50
53053;DHT22;38934;52.690;6.184;2023-06-26T08:48:07;26.40;81.50
53053;DHT22;38934;52.690;6.184;2023-06-26T08:50:35;26.40;82.40
53053;DHT22;38934;52.690;6.184;2023-06-26T08:55:31;27.10;82.90
53053;DHT22;38934;52.690;6.184;2023-06-26T08:57:59;26.60;83.60
53053;DHT22;38934;52.690;6.184;2023-06-26T09:00:25;26.50;84.10
53053;DHT22;38934;52.690;6.184;2023-06-26T09:02:50;26.50;84.20
53053;DHT22;38934;52.690;6.184;2023-06-26T09:05:16;26.00;84.60
53053;DHT22;38934;52.690;6.184;2023-06-26T09:07:42;25.80;85.80
53053;DHT22;38934;52.690;6.184;2023-06-26T09:10:08;25.50;86.50
53053;DHT22;38934;52.690;6.184;2023-06-26T09:12:34;26.00;87.80
53053;DHT22;38934;52.690;6.184;2023-06-26T09:15:01;27.00;87.00
53053;DHT22;38934;52.690;6.184;2023-06-26T09:17:30;27.60;85.70
53053;DHT22;38934;52.690;6.184;2023-06-26T09:19:56;27.20;84.00
53053;DHT22;38934;52.690;6.184;2023-06-26T09:22:23;26.50;84.40
53053;DHT22;38934;52.690;6.184;2023-06-26T09:24:48;26.50;85.80
53053;DHT22;38934;52.690;6.184;2023-06-26T09:27:16;26.30;85.30
53053;DHT22;38934;52.690;6.184;2023-06-26T09:29:42;25.70;85.40
53053;DHT22;38934;52.690;6.184;2023-06-26T09:32:08;25.20;86.40
53053;DHT22;38934;52.690;6.184;2023-06-26T09:34:35;24.90;88.00
53053;DHT22;38934;52.690;6.184;2023-06-26T09:37:00;25.20;89.20
53053;DHT22;38934;52.690;6.184;2023-06-26T09:39:30;26.10;89.20
53053;DHT22;38934;52.690;6.184;2023-06-26T09:41:56;26.40;86.20
53053;DHT22;38934;52.690;6.184;2023-06-26T09:44:23;26.50;86.30
53053;DHT22;38934;52.690;6.184;2023-06-26T09:46:48;26.80;86.10
53053;DHT22;38934;52.690;6.184;2023-06-26T09:49:14;26.40;85.40
53053;DHT22;38934;52.690;6.184;2023-06-26T09:51:41;25.90;85.10
53053;DHT22;38934;52.690;6.184;2023-06-26T09:54:08;25.50;85.50
53053;DHT22;38934;52.690;6.184;2023-06-26T09:56:34;25.80;86.30
53053;DHT22;38934;52.690;6.184;2023-06-26T09:59:03;26.40;85.90
53053;DHT22;38934;52.690;6.184;2023-06-26T10:01:30;27.10;85.00
53053;DHT22;38934;52.690;6.184;2023-06-26T10:03:56;27.00;83.60
53053;DHT22;38934;52.690;6.184;2023-06-26T10:06:32;27.10;83.30
53053;DHT22;38934;52.690;6.184;2023-06-26T10:09:00;27.20;81.20
53053;DHT22;38934;52.690;6.184;2023-06-26T10:11:33;27.50;81.40
53053;DHT22;38934;52.690;6.184;2023-06-26T10:14:01;27.60;81.90
53053;DHT22;38934;52.690;6.184;2023-06-26T10:16:29;27.40;81.30
53053;DHT22;38934;52.690;6.184;2023-06-26T10:19:02;27.20;81.90
53053;DHT22;38934;52.690;6.184;2023-06-26T10:21:29;27.30;81.40
53053;DHT22;38934;52.690;6.184;2023-06-26T10:23:56;27.40;80.20
53053;DHT22;38934;52.690;6.184;2023-06-26T10:26:24;27.30;79.40
53053;DHT22;38934;52.690;6.184;2023-06-26T10:28:51;27.50;80.10
53053;DHT22;38934;52.690;6.184;2023-06-26T10:31:21;27.60;79.70
53053;DHT22;38934;52.690;6.184;2023-06-26T10:33:49;27.50;78.70
53053;DHT22;38934;52.690;6.184;2023-06-26T10:36:16;27.30;78.70
53053;DHT22;38934;52.690;6.184;2023-06-26T10:38:51;27.10;79.30
53053;DHT22;38934;52.690;6.184;2023-06-26T10:41:22;27.00;79.50
53053;DHT22;38934;52.690;6.184;2023-06-26T10:44:12;26.80;78.30
53053;DHT22;38934;52.690;6.184;2023-06-26T10:46:52;26.70;80.40
53053;DHT22;38934;52.690;6.184;2023-06-26T10:49:19;26.50;80.10
53053;DHT22;38934;52.690;6.184;2023-06-26T10:51:50;26.50;80.60
53053;DHT22;38934;52.690;6.184;2023-06-26T10:54:17;26.40;80.90
53053;DHT22;38934;52.690;6.184;2023-06-26T10:56:47;26.30;81.10
53053;DHT22;38934;52.690;6.184;2023-06-26T10:59:27;26.00;81.10
53053;DHT22;38934;52.690;6.184;2023-06-26T11:02:02;25.90;80.70
53053;DHT22;38934;52.690;6.184;2023-06-26T11:04:45;26.00;81.00
53053;DHT22;38934;52.690;6.184;2023-06-26T11:10:01;26.20;78.60
53053;DHT22;38934;52.690;6.184;2023-06-26T11:12:43;26.30;77.20
53053;DHT22;38934;52.690;6.184;2023-06-26T11:15:14;26.50;78.30
53053;DHT22;38934;52.690;6.184;2023-06-26T11:17:44;26.60;78.50
53053;DHT22;38934;52.690;6.184;2023-06-26T11:20:11;26.30;77.30
53053;DHT22;38934;52.690;6.184;2023-06-26T11:22:39;26.10;77.80
53053;DHT22;38934;52.690;6.184;2023-06-26T11:25:06;26.20;78.30
53053;DHT22;38934;52.690;6.184;2023-06-26T11:30:09;25.50;78.20
53053;DHT22;38934;52.690;6.184;2023-06-26T11:32:36;25.30;78.60
53053;DHT22;38934;52.690;6.184;2023-06-26T11:35:02;25.10;78.60
53053;DHT22;38934;52.690;6.184;2023-06-26T11:37:30;25.20;79.20
53053;DHT22;38934;52.690;6.184;2023-06-26T11:39:56;25.20;78.80
53053;DHT22;38934;52.690;6.184;2023-06-26T11:42:22;25.10;78.10
53053;DHT22;38934;52.690;6.184;2023-06-26T11:44:47;25.10;78.60
53053;DHT22;38934;52.690;6.184;2023-06-26T11:47:18;25.30;78.90
53053;DHT22;38934;52.690;6.184;2023-06-26T11:49:45;25.50;79.30
53053;DHT22;38934;52.690;6.184;2023-06-26T11:52:11;25.70;77.80
53053;DHT22;38934;52.690;6.184;2023-06-26T11:54:36;25.70;77.00
53053;DHT22;38934;52.690;6.184;2023-06-26T11:57:03;25.50;77.20
53053;DHT22;38934;52.690;6.184;2023-06-26T11:59:34;25.60;78.10
53053;DHT22;38934;52.690;6.184;2023-06-26T12:02:08;25.90;77.00
53053;DHT22;38934;52.690;6.184;2023-06-26T12:04:36;25.90;78.10
53053;DHT22;38934;52.690;6.184;2023-06-26T12:07:03;25.80;77.30
53053;DHT22;38934;52.690;6.184;2023-06-26T12:09:31;25.50;76.30
53053;DHT22;38934;52.690;6.184;2023-06-26T12:11:59;25.30;76.60
53053;DHT22;38934;52.690;6.184;2023-06-26T12:14:25;25.30;77.30
53053;DHT22;38934;52.690;6.184;2023-06-26T12:16:52;25.20;77.70
53053;DHT22;38934;52.690;6.184;2023-06-26T12:19:27;25.00;77.50
53053;DHT22;38934;52.690;6.184;2023-06-26T12:21:52;24.90;78.20
53053;DHT22;38934;52.690;6.184;2023-06-26T12:24:22;24.80;78.60
53053;DHT22;38934;52.690;6.184;2023-06-26T12:26:53;24.90;78.70
53053;DHT22;38934;52.690;6.184;2023-06-26T12:29:20;25.00;79.60
53053;DHT22;38934;52.690;6.184;2023-06-26T12:31:51;25.00;79.20
53053;DHT22;38934;52.690;6.184;2023-06-26T12:34:25;25.00;79.40
53053;DHT22;38934;52.690;6.184;2023-06-26T12:36:51;25.00;78.10
53053;DHT22;38934;52.690;6.184;2023-06-26T12:39:19;24.80;78.00
53053;DHT22;38934;52.690;6.184;2023-06-26T12:41:52;24.70;78.00
53053;DHT22;38934;52.690;6.184;2023-06-26T12:44:19;24.70;78.70
53053;DHT22;38934;52.690;6.184;2023-06-26T12:46:46;24.70;79.80
53053;DHT22;38934;52.690;6.184;2023-06-26T12:49:13;24.80;78.00
53053;DHT22;38934;52.690;6.184;2023-06-26T12:51:38;24.70;76.70
53053;DHT22;38934;52.690;6.184;2023-06-26T12:54:05;24.70;77.00
53053;DHT22;38934;52.690;6.184;2023-06-26T12:56:31;24.70;77.70
53053;DHT22;38934;52.690;6.184;2023-06-26T12:58:57;24.90;77.70
53053;DHT22;38934;52.690;6.184;2023-06-26T13:01:22;25.00;77.00
53053;DHT22;38934;52.690;6.184;2023-06-26T13:03:50;25.10;75.90
53053;DHT22;38934;52.690;6.184;2023-06-26T13:06:17;25.20;75.80
53053;DHT22;38934;52.690;6.184;2023-06-26T13:08:42;25.20;75.90
53053;DHT22;38934;52.690;6.184;2023-06-26T13:11:09;25.20;76.00
53053;DHT22;38934;52.690;6.184;2023-06-26T13:13:34;25.10;75.70
53053;DHT22;38934;52.690;6.184;2023-06-26T13:16:00;25.00;75.20
53053;DHT22;38934;52.690;6.184;2023-06-26T13:18:26;24.90;76.00
53053;DHT22;38934;52.690;6.184;2023-06-26T13:20:51;25.00;76.70
53053;DHT22;38934;52.690;6.184;2023-06-26T13:23:17;25.10;78.90
53053;DHT22;38934;52.690;6.184;2023-06-26T13:25:45;25.00;79.90
53053;DHT22;38934;52.690;6.184;2023-06-26T13:28:10;24.90;80.60
53053;DHT22;38934;52.690;6.184;2023-06-26T13:30:36;24.80;80.50
53053;DHT22;38934;52.690;6.184;2023-06-26T13:33:02;24.60;80.90
53053;DHT22;38934;52.690;6.184;2023-06-26T13:35:28;24.30;79.80
53053;DHT22;38934;52.690;6.184;2023-06-26T13:37:54;24.30;79.80
53053;DHT22;38934;52.690;6.184;2023-06-26T13:40:19;24.40;79.20
53053;DHT22;38934;52.690;6.184;2023-06-26T13:42:45;24.50;79.00
53053;DHT22;38934;52.690;6.184;2023-06-26T13:45:11;24.50;78.70
53053;DHT22;38934;52.690;6.184;2023-06-26T13:47:37;24.60;79.70
53053;DHT22;38934;52.690;6.184;2023-06-26T13:50:09;24.70;80.10
53053;DHT22;38934;52.690;6.184;2023-06-26T13:52:35;24.90;80.00
53053;DHT22;38934;52.690;6.184;2023-06-26T13:55:01;25.10;79.80
53053;DHT22;38934;52.690;6.184;2023-06-26T13:57:30;24.80;77.20
53053;DHT22;38934;52.690;6.184;2023-06-26T13:59:56;24.40;76.80
53053;DHT22;38934;52.690;6.184;2023-06-26T14:02:22;24.10;77.60
53053;DHT22;38934;52.690;6.184;2023-06-26T14:04:47;23.90;78.80
53053;DHT22;38934;52.690;6.184;2023-06-26T14:07:13;23.80;79.70
53053;DHT22;38934;52.690;6.184;2023-06-26T14:09:40;23.90;80.50
53053;DHT22;38934;52.690;6.184;2023-06-26T14:12:06;24.10;80.90
53053;DHT22;38934;52.690;6.184;2023-06-26T14:14:32;24.30;80.80
53053;DHT22;38934;52.690;6.184;2023-06-26T14:16:58;24.50;79.60
53053;DHT22;38934;52.690;6.184;2023-06-26T14:19:24;24.60;77.30
53053;DHT22;38934;52.690;6.184;2023-06-26T14:21:51;24.60;78.10
53053;DHT22;38934;52.690;6.184;2023-06-26T14:24:16;24.70;78.10
53053;DHT22;38934;52.690;6.184;2023-06-26T14:26:42;24.90;78.40
53053;DHT22;38934;52.690;6.184;2023-06-26T14:29:08;24.90;76.70
53053;DHT22;38934;52.690;6.184;2023-06-26T14:31:33;24.80;76.20
53053;DHT22;38934;52.690;6.184;2023-06-26T14:33:59;24.80;75.00
53053;DHT22;38934;52.690;6.184;2023-06-26T14:36:25;24.50;73.50
53053;DHT22;38934;52.690;6.184;2023-06-26T14:38:52;24.30;74.40
53053;DHT22;38934;52.690;6.184;2023-06-26T14:41:18;24.30;75.50
53053;DHT22;38934;52.690;6.184;2023-06-26T14:43:43;24.30;75.00
53053;DHT22;38934;52.690;6.184;2023-06-26T14:46:11;24.40;74.40
53053;DHT22;38934;52.690;6.184;2023-06-26T14:48:36;24.40;74.40
53053;DHT22;38934;52.690;6.184;2023-06-26T14:51:02;24.30;73.70
53053;DHT22;38934;52.690;6.184;2023-06-26T14:53:28;24.30;73.90
53053;DHT22;38934;52.690;6.184;2023-06-26T14:55:53;24.40;75.10
53053;DHT22;38934;52.690;6.184;2023-06-26T14:58:19;24.50;76.00
53053;DHT22;38934;52.690;6.184;2023-06-26T15:00:44;24.60;75.30
53053;DHT22;38934;52.690;6.184;2023-06-26T15:03:10;24.40;74.30
53053;DHT22;38934;52.690;6.184;2023-06-26T15:05:36;24.30;74.70
53053;DHT22;38934;52.690;6.184;2023-06-26T15:08:02;24.10;75.10
53053;DHT22;38934;52.690;6.184;2023-06-26T15:10:27;24.00;75.30
53053;DHT22;38934;52.690;6.184;2023-06-26T15:12:53;24.00;75.80
53053;DHT22;38934;52.690;6.184;2023-06-26T15:15:19;24.10;76.20
53053;DHT22;38934;52.690;6.184;2023-06-26T15:17:45;24.00;76.30
53053;DHT22;38934;52.690;6.184;2023-06-26T15:20:10;24.00;76.10
53053;DHT22;38934;52.690;6.184;2023-06-26T15:22:36;23.90;74.60
53053;DHT22;38934;52.690;6.184;2023-06-26T15:25:02;23.80;74.40
53053;DHT22;38934;52.690;6.184;2023-06-26T15:27:28;23.70;74.30
53053;DHT22;38934;52.690;6.184;2023-06-26T15:29:53;23.70;75.10
53053;DHT22;38934;52.690;6.184;2023-06-26T15:32:19;23.70;75.70
53053;DHT22;38934;52.690;6.184;2023-06-26T15:34:45;23.70;74.20
53053;DHT22;38934;52.690;6.184;2023-06-26T15:37:12;23.50;74.50
53053;DHT22;38934;52.690;6.184;2023-06-26T15:39:38;23.60;74.60